PWSweather.com
Personal Weather Stations
Station Observations
SUBOTICARS
SuboticaYU

SuboticaYU

Lat: 46.1296717, Lon: 19.641551

Elevation: 361

Station Type: Nexus

http://sumeteo.info

Latest ConditionsUpdated 2:20:01 PM GMT+01:01 Wednesday, Jul 29, 2015
Currently Today's Max Today's Min Today's Average
Temperature 83.8°F28.8°C 84.2°F29.0°C 58.3°F14.6°C 70.2°F21.2°C
Dew Point 63.2°F17.3°C 64.3°F17.9°C 54.4°F12.4°C 59.3°F15.2°C
Winds 4.6 mph NNW7.4 kmh NNW 5.8 mph NE9.3 kmh NE - 1.8 mph 2.9 kmh
Wind Gusts 6.9 mph11.1 kmh 10.4 mph16.7 kmh - -
Humidity 50% 88% 49% 70%
Pressure 29.86 in1011.2 mb 29.88 in1011.9 mb 29.82 in1009.8 mb -
Hour Temp Dew Point Humidity Winds Wind Gusts Pressure Precip Precip Rate Daily Precip Total
02:20 PM 83.8°F28.8°C 63.2°F17.3°C 50% 4.6 mph NNW7.4 kmh NNW 6.9 mph11.1 kmh 29.86 in1011.2 mb - 0.00 in0.0 mm 0.00 in0.0 mm
02:10 PM 83.7°F28.7°C 63.6°F17.6°C 51% 5.8 mph NE9.3 kmh NE 6.9 mph11.1 kmh 29.86 in1011.2 mb - 0.00 in0.0 mm 0.00 in0.0 mm
02:00 PM 84.2°F29.0°C 63.5°F17.5°C 50% 4.6 mph ESE7.4 kmh ESE 9.2 mph14.8 kmh 29.86 in1011.2 mb - 0.00 in0.0 mm 0.00 in0.0 mm
01:50 PM 84.0°F28.9°C 63.4°F17.4°C 50% 4.6 mph ESE7.4 kmh ESE 8.1 mph13.0 kmh 29.86 in1011.2 mb - 0.00 in0.0 mm 0.00 in0.0 mm
01:40 PM 83.8°F28.8°C 63.2°F17.3°C 50% 5.8 mph NE9.3 kmh NE 8.1 mph13.0 kmh 29.86 in1011.2 mb - 0.00 in0.0 mm 0.00 in0.0 mm
01:30 PM 83.8°F28.8°C 62.6°F17.0°C 49% 4.6 mph NE7.4 kmh NE 10.4 mph16.7 kmh 29.86 in1011.2 mb - 0.00 in0.0 mm 0.00 in0.0 mm
01:20 PM 84.0°F28.9°C 63.4°F17.4°C 50% 3.5 mph E5.6 kmh E 6.9 mph11.1 kmh 29.86 in1011.2 mb - 0.00 in0.0 mm 0.00 in0.0 mm
01:10 PM 83.8°F28.8°C 64.3°F17.9°C 52% 3.5 mph ENE5.6 kmh ENE 8.1 mph13.0 kmh 29.86 in1011.2 mb - 0.00 in0.0 mm 0.00 in0.0 mm
01:00 PM 83.8°F28.8°C 64.3°F17.9°C 52% 3.5 mph NNE5.6 kmh NNE 5.8 mph9.3 kmh 29.86 in1011.2 mb - 0.00 in0.0 mm 0.00 in0.0 mm
12:50 PM 83.1°F28.4°C 63.1°F17.3°C 51% 4.6 mph NE7.4 kmh NE 4.6 mph7.4 kmh 29.86 in1011.2 mb - 0.00 in0.0 mm 0.00 in0.0 mm
12:40 PM 82.9°F28.3°C 61.8°F16.6°C 49% 4.6 mph NNW7.4 kmh NNW 8.1 mph13.0 kmh 29.86 in1011.2 mb - 0.00 in0.0 mm 0.00 in0.0 mm
12:30 PM 82.2°F27.9°C 62.8°F17.1°C 52% 3.5 mph NE5.6 kmh NE 8.1 mph13.0 kmh 29.86 in1011.2 mb - 0.00 in0.0 mm 0.00 in0.0 mm
12:20 PM 83.1°F28.4°C 63.1°F17.3°C 51% 2.3 mph E3.7 kmh E 1.2 mph1.9 kmh 29.86 in1011.2 mb - 0.00 in0.0 mm 0.00 in0.0 mm
12:10 PM 82.8°F28.2°C 62.8°F17.1°C 51% 2.3 mph ENE3.7 kmh ENE 5.8 mph9.3 kmh 29.86 in1011.2 mb - 0.00 in0.0 mm 0.00 in0.0 mm
12:00 PM 82.4°F28.0°C 63.0°F17.2°C 52% 2.3 mph E3.7 kmh E 4.6 mph7.4 kmh 29.86 in1011.2 mb - 0.00 in0.0 mm 0.00 in0.0 mm
11:50 AM 82.6°F28.1°C 62.1°F16.7°C 50% 2.3 mph ENE3.7 kmh ENE 1.2 mph1.9 kmh 29.86 in1011.2 mb - 0.00 in0.0 mm 0.00 in0.0 mm
11:40 AM 82.4°F28.0°C 63.0°F17.2°C 52% 3.5 mph NE5.6 kmh NE 4.6 mph7.4 kmh 29.86 in1011.2 mb - 0.00 in0.0 mm 0.00 in0.0 mm
11:30 AM 81.7°F27.6°C 61.8°F16.6°C 51% 3.5 mph NE5.6 kmh NE 5.8 mph9.3 kmh 29.86 in1011.2 mb - 0.00 in0.0 mm 0.00 in0.0 mm
11:20 AM 81.3°F27.4°C 62.0°F16.7°C 52% 2.3 mph NNW3.7 kmh NNW 3.5 mph5.6 kmh 29.86 in1011.2 mb - 0.00 in0.0 mm 0.00 in0.0 mm
11:10 AM 81.3°F27.4°C 61.5°F16.4°C 51% 2.3 mph NE3.7 kmh NE 6.9 mph11.1 kmh 29.86 in1011.2 mb - 0.00 in0.0 mm 0.00 in0.0 mm
11:00 AM 81.0°F27.2°C 61.7°F16.5°C 52% 2.3 mph ESE3.7 kmh ESE 3.5 mph5.6 kmh 29.85 in1010.8 mb - 0.00 in0.0 mm 0.00 in0.0 mm
10:50 AM 80.6°F27.0°C 61.9°F16.6°C 53% 2.3 mph NE3.7 kmh NE 6.9 mph11.1 kmh 29.85 in1010.8 mb - 0.00 in0.0 mm 0.00 in0.0 mm
10:40 AM 80.2°F26.8°C 62.1°F16.7°C 54% 3.5 mph NNE5.6 kmh NNE 5.8 mph9.3 kmh 29.85 in1010.8 mb - 0.00 in0.0 mm 0.00 in0.0 mm
10:30 AM 79.5°F26.4°C 61.4°F16.3°C 54% 3.5 mph 5.6 kmh 6.9 mph11.1 kmh 29.85 in1010.8 mb - 0.00 in0.0 mm 0.00 in0.0 mm
10:20 AM 78.6°F25.9°C 62.1°F16.7°C 57% 3.5 mph ENE5.6 kmh ENE 6.9 mph11.1 kmh 29.87 in1011.5 mb - 0.00 in0.0 mm 0.00 in0.0 mm
10:10 AM 78.3°F25.7°C 61.8°F16.6°C 57% 4.6 mph ENE7.4 kmh ENE 5.8 mph9.3 kmh 29.87 in1011.5 mb - 0.00 in0.0 mm 0.00 in0.0 mm
10:00 AM 77.9°F25.5°C 61.9°F16.6°C 58% 3.5 mph NE5.6 kmh NE 6.9 mph11.1 kmh 29.87 in1011.5 mb - 0.00 in0.0 mm 0.00 in0.0 mm
09:50 AM 77.4°F25.2°C 61.9°F16.6°C 59% 3.5 mph NNE5.6 kmh NNE 3.5 mph5.6 kmh 29.87 in1011.5 mb - 0.00 in0.0 mm 0.00 in0.0 mm
09:40 AM 76.6°F24.8°C 60.8°F16.0°C 58% 4.6 mph NNE7.4 kmh NNE 6.9 mph11.1 kmh 29.88 in1011.9 mb - 0.00 in0.0 mm 0.00 in0.0 mm
09:30 AM 75.9°F24.4°C 60.6°F15.9°C 59% 4.6 mph NNE7.4 kmh NNE 10.4 mph16.7 kmh 29.88 in1011.9 mb - 0.00 in0.0 mm 0.00 in0.0 mm
09:20 AM 75.6°F24.2°C 60.2°F15.7°C 59% 4.6 mph NW7.4 kmh NW 6.9 mph11.1 kmh 29.87 in1011.5 mb - 0.00 in0.0 mm 0.00 in0.0 mm
09:10 AM 75.0°F23.9°C 61.1°F16.2°C 62% 4.6 mph NE7.4 kmh NE 6.9 mph11.1 kmh 29.87 in1011.5 mb - 0.00 in0.0 mm 0.00 in0.0 mm
09:00 AM 74.8°F23.8°C 61.4°F16.3°C 63% 4.6 mph NNW7.4 kmh NNW 8.1 mph13.0 kmh 29.86 in1011.2 mb - 0.00 in0.0 mm 0.00 in0.0 mm
08:50 AM 74.7°F23.7°C 61.2°F16.2°C 63% 3.5 mph NNE5.6 kmh NNE 5.8 mph9.3 kmh 29.86 in1011.2 mb - 0.00 in0.0 mm 0.00 in0.0 mm
08:40 AM 74.1°F23.4°C 61.6°F16.4°C 65% 3.5 mph NNE5.6 kmh NNE 6.9 mph11.1 kmh 29.87 in1011.5 mb - 0.00 in0.0 mm 0.00 in0.0 mm
08:30 AM 73.4°F23.0°C 60.9°F16.1°C 65% 3.5 mph NNW5.6 kmh NNW 5.8 mph9.3 kmh 29.87 in1011.5 mb - 0.00 in0.0 mm 0.00 in0.0 mm
08:20 AM 73.8°F23.2°C 61.3°F16.3°C 65% 3.5 mph ENE5.6 kmh ENE 4.6 mph7.4 kmh 29.87 in1011.5 mb - 0.00 in0.0 mm 0.00 in0.0 mm
08:10 AM 74.1°F23.4°C 61.2°F16.2°C 64% 3.5 mph NNW5.6 kmh NNW 8.1 mph13.0 kmh 29.87 in1011.5 mb - 0.00 in0.0 mm 0.00 in0.0 mm
08:00 AM 73.8°F23.2°C 61.3°F16.3°C 65% 3.5 mph NNE5.6 kmh NNE 3.5 mph5.6 kmh 29.85 in1010.8 mb - 0.00 in0.0 mm 0.00 in0.0 mm
07:50 AM 72.9°F22.7°C 61.7°F16.5°C 68% 2.3 mph NNE3.7 kmh NNE 2.3 mph3.7 kmh 29.85 in1010.8 mb - 0.00 in0.0 mm 0.00 in0.0 mm
07:40 AM 71.8°F22.1°C 61.1°F16.2°C 69% 1.2 mph W1.9 kmh W 3.5 mph5.6 kmh 29.84 in1010.5 mb - 0.00 in0.0 mm 0.00 in0.0 mm
07:30 AM 72.0°F22.2°C 60.8°F16.0°C 68% 2.3 mph NNE3.7 kmh NNE 4.6 mph7.4 kmh 29.84 in1010.5 mb - 0.00 in0.0 mm 0.00 in0.0 mm
07:20 AM 71.1°F21.7°C 60.8°F16.0°C 70% 2.3 mph NNW3.7 kmh NNW 4.6 mph7.4 kmh 29.84 in1010.5 mb - 0.00 in0.0 mm 0.00 in0.0 mm
07:10 AM 70.9°F21.6°C 61.0°F16.1°C 71% 3.5 mph NNW5.6 kmh NNW 4.6 mph7.4 kmh 29.84 in1010.5 mb - 0.00 in0.0 mm 0.00 in0.0 mm
07:00 AM 70.7°F21.5°C 61.2°F16.2°C 72% 1.2 mph NNE1.9 kmh NNE 2.3 mph3.7 kmh 29.83 in1010.2 mb - 0.00 in0.0 mm 0.00 in0.0 mm
06:50 AM 70.2°F21.2°C 61.1°F16.2°C 73% Calm Calm 2.3 mph3.7 kmh 29.83 in1010.2 mb - 0.00 in0.0 mm 0.00 in0.0 mm
06:40 AM 69.3°F20.7°C 60.6°F15.9°C 74% Calm Calm 1.2 mph1.9 kmh 29.84 in1010.5 mb - 0.00 in0.0 mm 0.00 in0.0 mm
06:30 AM 68.0°F20.0°C 60.2°F15.7°C 76% 1.2 mph ESE1.9 kmh ESE 2.3 mph3.7 kmh 29.84 in1010.5 mb - 0.00 in0.0 mm 0.00 in0.0 mm
06:20 AM 66.6°F19.2°C 59.5°F15.3°C 78% Calm Calm 1.2 mph1.9 kmh 29.83 in1010.2 mb - 0.00 in0.0 mm 0.00 in0.0 mm
06:10 AM 65.1°F18.4°C 59.1°F15.1°C 81% Calm Calm -- 29.83 in1010.2 mb - 0.00 in0.0 mm 0.00 in0.0 mm
06:00 AM 64.2°F17.9°C 58.6°F14.8°C 82% Calm Calm -- 29.83 in1010.2 mb - 0.00 in0.0 mm 0.00 in0.0 mm
05:50 AM 63.5°F17.5°C 57.9°F14.4°C 82% Calm Calm -- 29.83 in1010.2 mb - 0.00 in0.0 mm 0.00 in0.0 mm
05:40 AM 63.1°F17.3°C 57.6°F14.2°C 82% Calm Calm -- 29.82 in1009.8 mb - 0.00 in0.0 mm 0.00 in0.0 mm
05:30 AM 62.4°F16.9°C 56.9°F13.8°C 82% Calm Calm -- 29.82 in1009.8 mb - 0.00 in0.0 mm 0.00 in0.0 mm
05:20 AM 62.2°F16.8°C 57.0°F13.9°C 83% Calm Calm -- 29.82 in1009.8 mb - 0.00 in0.0 mm 0.00 in0.0 mm
05:10 AM 61.9°F16.6°C 56.7°F13.7°C 83% Calm Calm -- 29.82 in1009.8 mb - 0.00 in0.0 mm 0.00 in0.0 mm
05:00 AM 61.5°F16.4°C 56.6°F13.7°C 84% Calm Calm -- 29.82 in1009.8 mb - 0.00 in0.0 mm 0.00 in0.0 mm
04:50 AM 61.0°F16.1°C 56.1°F13.4°C 84% Calm Calm 2.3 mph3.7 kmh 29.82 in1009.8 mb - 0.00 in0.0 mm 0.00 in0.0 mm
04:40 AM 60.8°F16.0°C 56.3°F13.5°C 85% Calm Calm -- 29.82 in1009.8 mb - 0.00 in0.0 mm 0.00 in0.0 mm
04:30 AM 60.1°F15.6°C 55.9°F13.3°C 86% Calm Calm -- 29.82 in1009.8 mb - 0.00 in0.0 mm 0.00 in0.0 mm
04:20 AM 59.7°F15.4°C 55.8°F13.2°C 87% Calm Calm -- 29.82 in1009.8 mb - 0.00 in0.0 mm 0.00 in0.0 mm
04:10 AM 59.4°F15.2°C 55.2°F12.9°C 86% Calm Calm -- 29.82 in1009.8 mb - 0.00 in0.0 mm 0.00 in0.0 mm
04:00 AM 59.4°F15.2°C 55.5°F13.1°C 87% Calm Calm -- 29.82 in1009.8 mb - 0.00 in0.0 mm 0.00 in0.0 mm
03:50 AM 58.8°F14.9°C 55.0°F12.8°C 87% Calm Calm -- 29.82 in1009.8 mb - 0.00 in0.0 mm 0.00 in0.0 mm
03:40 AM 58.8°F14.9°C 55.0°F12.8°C 87% Calm Calm -- 29.83 in1010.2 mb - 0.00 in0.0 mm 0.00 in0.0 mm
03:30 AM 58.6°F14.8°C 54.8°F12.7°C 87% Calm Calm -- 29.83 in1010.2 mb - 0.00 in0.0 mm 0.00 in0.0 mm
03:20 AM 58.5°F14.7°C 54.6°F12.6°C 87% Calm Calm -- 29.83 in1010.2 mb - 0.00 in0.0 mm 0.00 in0.0 mm
03:10 AM 58.5°F14.7°C 54.6°F12.6°C 87% Calm Calm -- 29.83 in1010.2 mb - 0.00 in0.0 mm 0.00 in0.0 mm
03:00 AM 58.6°F14.8°C 54.8°F12.7°C 87% Calm Calm -- 29.83 in1010.2 mb - 0.00 in0.0 mm 0.00 in0.0 mm
02:50 AM 58.3°F14.6°C 54.4°F12.4°C 87% Calm Calm -- 29.83 in1010.2 mb - 0.00 in0.0 mm 0.00 in0.0 mm
02:40 AM 58.3°F14.6°C 54.4°F12.4°C 87% Calm Calm -- 29.83 in1010.2 mb - 0.00 in0.0 mm 0.00 in0.0 mm
02:30 AM 58.5°F14.7°C 54.6°F12.6°C 87% Calm Calm -- 29.83 in1010.2 mb - 0.00 in0.0 mm 0.00 in0.0 mm
02:20 AM 58.5°F14.7°C 54.6°F12.6°C 87% Calm Calm -- 29.83 in1010.2 mb - 0.00 in0.0 mm 0.00 in0.0 mm
02:10 AM 58.6°F14.8°C 54.8°F12.7°C 87% Calm Calm -- 29.83 in1010.2 mb - 0.00 in0.0 mm 0.00 in0.0 mm
02:00 AM 58.8°F14.9°C 55.0°F12.8°C 87% Calm Calm -- 29.84 in1010.5 mb - 0.00 in0.0 mm 0.00 in0.0 mm
01:50 AM 58.8°F14.9°C 55.0°F12.8°C 87% Calm Calm -- 29.84 in1010.5 mb - 0.00 in0.0 mm 0.00 in0.0 mm
01:40 AM 59.0°F15.0°C 55.1°F12.8°C 87% Calm Calm -- 29.84 in1010.5 mb - 0.00 in0.0 mm 0.00 in0.0 mm
01:30 AM 59.4°F15.2°C 55.8°F13.2°C 88% Calm Calm -- 29.84 in1010.5 mb - 0.00 in0.0 mm 0.00 in0.0 mm
01:20 AM 59.2°F15.1°C 55.3°F12.9°C 87% Calm Calm -- 29.86 in1011.2 mb - 0.00 in0.0 mm 0.00 in0.0 mm
01:10 AM 59.5°F15.3°C 55.7°F13.2°C 87% Calm Calm -- 29.86 in1011.2 mb - 0.00 in0.0 mm 0.00 in0.0 mm
01:00 AM 59.9°F15.5°C 56.0°F13.3°C 87% Calm Calm -- 29.85 in1010.8 mb - 0.00 in0.0 mm 0.00 in0.0 mm
12:50 AM 59.9°F15.5°C 56.0°F13.3°C 87% Calm Calm -- 29.85 in1010.8 mb - 0.00 in0.0 mm 0.00 in0.0 mm
12:40 AM 60.1°F15.6°C 56.2°F13.4°C 87% Calm Calm -- 29.85 in1010.8 mb - 0.00 in0.0 mm 0.00 in0.0 mm
12:30 AM 60.4°F15.8°C 56.6°F13.7°C 87% Calm Calm -- 29.85 in1010.8 mb - 0.00 in0.0 mm 0.00 in0.0 mm
12:20 AM 60.4°F15.8°C 56.6°F13.7°C 87% Calm Calm -- 29.86 in1011.2 mb - 0.00 in0.0 mm 0.00 in0.0 mm
12:10 AM 60.6°F15.9°C 56.7°F13.7°C 87% Calm Calm -- 29.86 in1011.2 mb - 0.00 in0.0 mm 0.00 in0.0 mm
12:00 AM 60.6°F15.9°C 56.7°F13.7°C 87% Calm Calm -- 29.86 in1011.2 mb - 0.00 in0.0 mm 0.00 in0.0 mm